Time;durP1;ratioP1;P1;durP2;ratioP2;P2;SDS_P1;SDS_P2;PMS_P1;PMS_P2;Temp;Humidity;BMP_temperature;BMP_pressure;BME280_temperature;BME280_humidity;BME280_pressure;Samples;Min_cycle;Max_cycle;Signal;HPM_P1;HPM_P2
2023/05/17 00:02:22;;;;;;;4.00;1.88;;;;;;;7.15;67.62;98590.34;4951584;28;20031;-75
2023/05/17 00:04:47;;;;;;;2.78;1.70;;;;;;;7.30;66.05;98586.38;4945191;28;20097;-75
2023/05/17 00:07:13;;;;;;;3.22;1.70;;;;;;;7.43;65.78;98588.16;4944771;28;20055;-75
2023/05/17 00:09:38;;;;;;;2.53;1.80;;;;;;;7.12;66.72;98591.59;4957678;28;20034;-75
2023/05/17 00:12:04;;;;;;;4.72;2.10;;;;;;;6.96;68.70;98587.53;4928962;28;20467;-76
2023/05/17 00:14:29;;;;;;;3.33;1.80;;;;;;;6.88;68.22;98595.78;4967738;28;20050;-76
2023/05/17 00:16:54;;;;;;;5.13;2.13;;;;;;;6.68;69.90;98594.22;4962905;28;20031;-76
2023/05/17 00:19:20;;;;;;;4.47;1.75;;;;;;;6.84;67.76;98602.59;4934800;29;20035;-76
2023/05/17 00:21:45;;;;;;;4.43;2.15;;;;;;;6.92;68.39;98597.03;4935292;28;20494;-76
2023/05/17 00:24:10;;;;;;;3.13;2.25;;;;;;;6.82;69.17;98596.66;4928680;28;20045;-76
2023/05/17 00:26:36;;;;;;;3.72;2.30;;;;;;;6.80;68.81;98598.72;4928892;28;20039;-75
2023/05/17 00:29:02;;;;;;;4.75;2.72;;;;;;;6.78;69.67;98600.78;4968403;28;20110;-74
2023/05/17 00:31:27;;;;;;;2.60;2.22;;;;;;;6.42;70.83;98613.00;4935025;28;20023;-75
2023/05/17 00:33:53;;;;;;;4.43;2.88;;;;;;;6.54;70.18;98598.78;4944227;28;20121;-75
2023/05/17 00:36:18;;;;;;;6.25;2.80;;;;;;;6.64;69.93;98612.56;4941373;28;20034;-75
2023/05/17 00:38:44;;;;;;;4.93;2.45;;;;;;;6.66;68.93;98606.97;4912889;28;20654;-75
2023/05/17 00:41:10;;;;;;;3.35;2.28;;;;;;;6.62;69.76;98609.28;4945007;29;20027;-75
2023/05/17 00:43:35;;;;;;;4.68;2.72;;;;;;;6.62;69.44;98606.59;4934704;29;20042;-75
2023/05/17 00:46:01;;;;;;;3.20;2.33;;;;;;;6.62;68.88;98609.28;4934179;28;20034;-75
2023/05/17 00:48:27;;;;;;;4.18;2.33;;;;;;;6.54;69.30;98614.81;4944338;28;20548;-75
2023/05/17 00:50:54;;;;;;;3.40;2.97;;;;;;;6.43;70.52;98618.16;4944900;29;20019;-75
2023/05/17 00:53:20;;;;;;;4.88;2.80;;;;;;;6.34;69.81;98613.22;4950512;28;20031;-75
2023/05/17 00:55:45;;;;;;;5.70;3.08;;;;;;;6.31;70.16;98619.78;4921900;29;20437;-75
2023/05/17 00:58:11;;;;;;;6.25;3.20;;;;;;;6.39;70.23;98616.09;4950345;29;20114;-76
2023/05/17 01:00:37;;;;;;;8.68;2.72;;;;;;;6.41;69.24;98609.50;4949852;28;20129;-75
2023/05/17 01:03:04;;;;;;;4.75;2.60;;;;;;;6.38;69.50;98614.44;4927787;28;20081;-75
2023/05/17 01:05:29;;;;;;;4.95;2.90;;;;;;;6.15;71.22;98621.03;4924967;28;20022;-75
2023/05/17 01:07:55;;;;;;;4.90;3.58;;;;;;;6.10;71.00;98622.69;4927951;28;20054;-76
2023/05/17 01:10:53;;;;;;;3.60;3.03;;;;;;;6.11;70.31;98613.63;4957282;28;20022;-76
2023/05/17 01:13:23;;;;;;;5.25;3.45;;;;;;;6.06;70.90;98624.13;4939594;28;20133;-76
2023/05/17 01:16:10;;;;;;;4.60;3.70;;;;;;;6.15;70.57;98620.22;4911869;28;20049;-76
2023/05/17 01:18:50;;;;;;;5.47;2.88;;;;;;;6.28;69.51;98622.88;4911517;28;20062;-76
2023/05/17 01:21:39;;;;;;;5.70;3.58;;;;;;;5.95;71.42;98630.09;4947023;29;20031;-75
2023/05/17 01:24:25;;;;;;;6.43;4.55;;;;;;;5.99;72.24;98628.66;4934065;29;20043;-76
2023/05/17 01:26:52;;;;;;;6.20;5.55;;;;;;;5.65;72.29;98623.44;4933957;28;20039;-75
2023/05/17 01:29:20;;;;;;;4.90;4.32;;;;;;;5.92;71.08;98630.47;4956290;28;20027;-76
2023/05/17 01:31:47;;;;;;;5.60;4.95;;;;;;;5.95;71.15;98636.22;4943563;28;20035;-75
2023/05/17 01:34:14;;;;;;;4.50;4.10;;;;;;;5.94;71.57;98628.44;4947182;29;20418;-76
2023/05/17 01:36:42;;;;;;;6.93;6.25;;;;;;;5.75;72.62;98631.84;4936758;29;20039;-75
2023/05/17 01:39:08;;;;;;;7.07;6.47;;;;;;;5.81;72.49;98639.09;4946652;28;20082;-76
2023/05/17 01:41:39;;;;;;;6.78;6.22;;;;;;;5.67;72.97;98634.72;4927305;28;20031;-75
2023/05/17 01:44:04;;;;;;;6.53;5.97;;;;;;;5.63;72.07;98649.50;4929611;29;20540;-76
2023/05/17 01:46:41;;;;;;;7.07;6.57;;;;;;;5.62;72.07;98643.34;4966871;28;20077;-75
2023/05/17 01:49:15;;;;;;;8.90;8.10;;;;;;;5.58;72.27;98642.91;4932930;28;20470;-76
2023/05/17 01:52:02;;;;;;;7.95;7.43;;;;;;;5.54;72.33;98644.34;4931157;28;20033;-75
2023/05/17 01:54:31;;;;;;;9.43;8.48;;;;;;;5.54;72.93;98649.69;4927041;28;20082;-75
2023/05/17 01:56:57;;;;;;;7.55;7.05;;;;;;;5.60;73.20;98648.09;4930020;29;20034;-75
2023/05/17 01:59:24;;;;;;;7.50;7.00;;;;;;;5.60;72.69;98648.09;4930440;29;20039;-75
2023/05/17 02:02:02;;;;;;;8.32;7.72;;;;;;;5.51;72.66;98647.41;4946583;28;20081;-75
2023/05/17 02:04:29;;;;;;;8.90;8.20;;;;;;;5.35;73.41;98650.44;4906488;29;20035;-75
2023/05/17 02:06:54;;;;;;;9.95;9.15;;;;;;;4.92;73.87;98641.03;4921182;29;20028;-75
2023/05/17 02:09:20;;;;;;;11.65;10.65;;;;;;;5.23;73.42;98643.22;4949867;29;20035;-75
2023/05/17 02:11:45;;;;;;;11.23;10.40;;;;;;;5.32;73.03;98645.50;4932066;28;20404;-76
2023/05/17 02:14:10;;;;;;;13.80;13.00;;;;;;;5.23;74.32;98636.03;4927107;28;20035;-75
2023/05/17 02:16:36;;;;;;;13.15;12.00;;;;;;;5.24;73.65;98653.72;4925682;29;20483;-76
2023/05/17 02:19:01;;;;;;;12.82;11.93;;;;;;;5.18;74.26;98649.16;4933450;29;20046;-76
2023/05/17 02:21:27;;;;;;;13.40;12.40;;;;;;;5.24;73.67;98647.53;4947419;28;20058;-76
2023/05/17 02:23:52;;;;;;;10.60;10.00;;;;;;;5.24;73.67;98648.38;4939527;28;20045;-76
2023/05/17 02:26:17;;;;;;;12.20;11.30;;;;;;;5.18;73.57;98638.47;4940026;29;20035;-76
2023/05/17 02:28:43;;;;;;;11.55;10.50;;;;;;;5.10;74.16;98633.31;4957704;28;20041;-75
2023/05/17 02:31:08;;;;;;;13.93;12.93;;;;;;;5.10;74.48;98645.81;4950652;29;20535;-76
2023/05/17 02:33:34;;;;;;;14.45;13.38;;;;;;;5.17;73.25;98644.84;4954255;29;20047;-76
2023/05/17 02:35:59;;;;;;;13.00;12.30;;;;;;;5.10;73.47;98635.97;4918550;28;20027;-75
2023/05/17 02:38:25;;;;;;;13.20;12.40;;;;;;;5.13;74.32;98650.78;4928739;28;20042;-75
2023/05/17 02:40:50;;;;;;;11.35;10.38;;;;;;;5.15;74.17;98649.56;4933488;29;20031;-75
2023/05/17 02:43:16;;;;;;;13.13;12.18;;;;;;;5.35;73.63;98650.44;4937383;29;20382;-76
2023/05/17 02:45:42;;;;;;;13.00;11.90;;;;;;;5.22;74.35;98650.41;4950092;28;20078;-76
2023/05/17 02:48:08;;;;;;;13.80;12.90;;;;;;;5.26;74.31;98654.31;4962363;28;20061;-77
2023/05/17 02:50:33;;;;;;;14.30;13.45;;;;;;;5.14;74.43;98655.91;4965392;28;20497;-77
2023/05/17 02:52:59;;;;;;;14.80;13.77;;;;;;;5.18;73.84;98653.69;4927128;28;20089;-77
2023/05/17 02:55:24;;;;;;;14.50;13.30;;;;;;;5.14;74.42;98658.59;4949782;29;20030;-77
2023/05/17 02:57:50;;;;;;;12.98;11.98;;;;;;;5.19;74.45;98668.66;4952599;28;20039;-76
2023/05/17 03:00:16;;;;;;;14.27;13.38;;;;;;;5.30;74.57;98679.59;4933378;28;20038;-76
2023/05/17 03:02:41;;;;;;;11.45;10.65;;;;;;;5.27;73.92;98679.19;4946201;28;20035;-75
2023/05/17 03:05:07;;;;;;;12.93;12.10;;;;;;;5.27;73.62;98680.03;4949437;29;20035;-75
2023/05/17 03:07:36;;;;;;;12.55;11.73;;;;;;;5.35;73.87;98682.50;4937219;29;20409;-75
2023/05/17 03:10:02;;;;;;;13.43;12.52;;;;;;;5.39;73.63;98681.06;4942779;28;20022;-75
2023/05/17 03:12:34;;;;;;;14.68;13.77;;;;;;;5.03;74.58;98683.16;4953805;28;20122;-76
2023/05/17 03:15:00;;;;;;;16.35;15.25;;;;;;;4.88;75.59;98691.28;4950608;28;20118;-76
2023/05/17 03:17:25;;;;;;;19.70;18.40;;;;;;;4.93;75.12;98688.03;4945792;28;20039;-75
2023/05/17 03:19:50;;;;;;;17.38;16.38;;;;;;;5.10;74.53;98692.03;4947346;28;20198;-75
2023/05/17 03:22:16;;;;;;;15.77;14.80;;;;;;;5.02;74.02;98697.53;4936071;29;20027;-75
2023/05/17 03:24:42;;;;;;;16.20;15.07;;;;;;;4.90;75.56;98693.78;4956252;29;20497;-75
2023/05/17 03:27:07;;;;;;;15.60;14.82;;;;;;;4.93;75.01;98697.88;4952087;29;20023;-75
2023/05/17 03:29:34;;;;;;;17.90;16.85;;;;;;;4.89;75.24;98702.78;4934708;28;20085;-75
2023/05/17 03:31:59;;;;;;;16.10;15.00;;;;;;;4.97;75.58;98709.81;4956860;28;20105;-74
2023/05/17 03:34:25;;;;;;;18.08;16.75;;;;;;;4.95;75.63;98711.88;4947325;29;20401;-75
2023/05/17 03:36:50;;;;;;;18.40;17.20;;;;;;;5.04;74.86;98706.16;4947294;29;20032;-76
2023/05/17 03:39:16;;;;;;;18.45;17.48;;;;;;;4.92;75.54;98718.41;4927251;28;20042;-76
2023/05/17 03:41:41;;;;;;;20.60;19.65;;;;;;;5.12;75.20;98716.69;4953165;28;20038;-76
2023/05/17 03:44:07;;;;;;;18.70;17.40;;;;;;;5.04;75.15;98711.50;4934755;28;20511;-76
2023/05/17 03:46:32;;;;;;;20.20;19.20;;;;;;;5.00;75.73;98715.59;4943032;28;20030;-76
2023/05/17 03:48:58;;;;;;;22.40;21.00;;;;;;;5.05;75.56;98707.81;4958984;28;20035;-75
2023/05/17 03:51:24;;;;;;;21.55;20.25;;;;;;;5.08;75.69;98710.09;4910145;29;20382;-76
2023/05/17 03:53:56;;;;;;;15.70;14.68;;;;;;;5.36;74.07;98715.38;4923672;29;20043;-75
2023/05/17 03:56:21;;;;;;;15.15;14.40;;;;;;;5.36;74.29;98716.22;4932338;29;20040;-76
2023/05/17 03:58:47;;;;;;;16.65;15.55;;;;;;;5.49;73.70;98710.91;4891505;29;20079;-76
2023/05/17 04:01:12;;;;;;;13.77;12.68;;;;;;;5.36;73.98;98715.38;4925615;29;20410;-76
2023/05/17 04:03:38;;;;;;;16.35;15.32;;;;;;;5.46;74.16;98727.31;4931019;29;20105;-75
2023/05/17 04:06:05;;;;;;;19.30;17.92;;;;;;;5.30;74.21;98726.81;4944417;28;20054;-74
2023/05/17 04:08:35;;;;;;;19.38;18.25;;;;;;;5.40;74.79;98728.13;4930208;29;20529;-75
2023/05/17 04:11:08;;;;;;;15.80;14.60;;;;;;;5.58;73.23;98728.41;4928509;28;20035;-75
2023/05/17 04:13:36;;;;;;;17.33;16.20;;;;;;;5.32;74.07;98736.28;5237091;23;20077;-75
2023/05/17 04:16:01;;;;;;;16.02;15.02;;;;;;;5.23;74.15;98729.47;5016405;28;20372;-76
2023/05/17 04:18:27;;;;;;;20.70;19.60;;;;;;;4.91;75.94;98738.09;5000086;28;20044;-75
2023/05/17 04:20:54;;;;;;;22.83;21.42;;;;;;;5.15;75.50;98743.00;5019811;28;20026;-76
2023/05/17 04:23:19;;;;;;;20.85;19.65;;;;;;;5.32;75.12;98725.63;5019404;28;20037;-76
2023/05/17 04:25:46;;;;;;;22.08;20.90;;;;;;;5.63;74.09;98737.66;5032105;28;20061;-76
2023/05/17 04:28:15;;;;;;;18.83;17.50;;;;;;;5.39;74.68;98747.84;5045900;28;20036;-77
2023/05/17 04:30:42;;;;;;;24.80;23.52;;;;;;;5.22;76.23;98748.38;5023469;28;20017;-77
2023/05/17 04:33:07;;;;;;;28.90;27.38;;;;;;;5.15;77.01;98742.16;5021533;28;20041;-76
2023/05/17 04:35:33;;;;;;;28.60;27.25;;;;;;;5.20;77.05;98742.41;5039304;28;20021;-76
2023/05/17 04:37:58;;;;;;;29.85;28.15;;;;;;;5.36;76.49;98748.25;5022094;28;20029;-75
2023/05/17 04:40:24;;;;;;;27.95;26.55;;;;;;;5.42;76.17;98747.44;5008661;28;20026;-76
2023/05/17 04:42:50;;;;;;;26.38;24.90;;;;;;;5.70;75.40;98754.53;5040382;28;20033;-78
2023/05/17 04:45:16;;;;;;;25.23;23.73;;;;;;;5.51;75.61;98746.25;5048654;28;20471;-76
2023/05/17 04:47:42;;;;;;;24.27;22.73;;;;;;;5.71;75.80;98746.34;5028682;28;20035;-76
2023/05/17 04:50:08;;;;;;;21.45;20.23;;;;;;;5.88;74.57;98754.88;5039101;28;20364;-76
2023/05/17 04:52:34;;;;;;;24.05;22.58;;;;;;;5.88;75.36;98752.19;5018556;28;20080;-76
2023/05/17 04:55:00;;;;;;;21.67;20.38;;;;;;;6.18;74.42;98750.84;5008145;28;20029;-76
2023/05/17 04:57:26;;;;;;;24.45;22.85;;;;;;;6.17;74.67;98741.16;5039311;28;20024;-76
2023/05/17 04:59:57;;;;;;;21.27;20.08;;;;;;;6.10;74.58;98751.00;5036432;28;20029;-76
2023/05/17 05:02:23;;;;;;;23.27;21.98;;;;;;;6.28;74.97;98753.13;5000238;28;20038;-76
2023/05/17 05:04:49;;;;;;;24.80;22.92;;;;;;;6.19;75.15;98760.50;5023424;28;20078;-77
2023/05/17 05:07:15;;;;;;;24.35;23.00;;;;;;;6.39;74.60;98765.88;5038142;28;20037;-77
2023/05/17 05:09:41;;;;;;;23.85;22.45;;;;;;;6.41;74.54;98764.66;5042758;28;20368;-77
2023/05/17 05:12:08;;;;;;;22.98;21.52;;;;;;;6.51;74.21;98770.41;5046009;28;20029;-77
2023/05/17 05:14:35;;;;;;;19.63;18.33;;;;;;;6.64;74.47;98775.78;5051080;28;20021;-71
2023/05/17 05:17:01;;;;;;;16.92;15.88;;;;;;;6.31;74.35;98774.91;5021433;28;20120;-76
2023/05/17 05:19:27;;;;;;;16.30;15.18;;;;;;;6.33;74.97;98786.25;5026943;28;20037;-76
2023/05/17 05:21:53;;;;;;;17.77;16.58;;;;;;;6.13;75.38;98793.41;5028059;28;20033;-76
2023/05/17 05:24:19;;;;;;;22.80;21.60;;;;;;;6.02;76.50;98792.13;5051111;28;20021;-76
2023/05/17 05:26:45;;;;;;;19.48;18.38;;;;;;;6.22;75.21;98797.53;5037614;28;20120;-76
2023/05/17 05:29:11;;;;;;;16.95;15.70;;;;;;;6.02;75.00;98802.00;5011712;28;20072;-76
2023/05/17 05:31:37;;;;;;;16.63;15.43;;;;;;;6.24;74.77;98800.81;5040473;28;20029;-76
2023/05/17 05:34:04;;;;;;;20.25;18.85;;;;;;;5.97;77.07;98809.81;5023173;28;20030;-75
2023/05/17 05:36:30;;;;;;;23.10;21.83;;;;;;;6.29;75.54;98819.78;5039907;28;20029;-76
2023/05/17 05:38:57;;;;;;;18.20;16.83;;;;;;;6.61;74.71;98808.31;5031142;28;20025;-76
2023/05/17 05:41:23;;;;;;;17.55;16.23;;;;;;;6.44;74.51;98812.38;4997771;28;20049;-76
2023/05/17 05:43:49;;;;;;;18.25;17.02;;;;;;;6.66;74.07;98805.84;5025948;28;20108;-76
2023/05/17 05:46:14;;;;;;;18.67;17.17;;;;;;;7.05;74.43;98817.63;5049298;28;20586;-78
2023/05/17 05:48:41;;;;;;;18.15;17.05;;;;;;;6.76;74.99;98808.97;5017862;28;20021;-76
2023/05/17 05:51:07;;;;;;;21.27;19.80;;;;;;;6.72;74.91;98823.75;5019276;28;20036;-76
2023/05/17 05:53:33;;;;;;;21.95;20.42;;;;;;;6.94;74.95;98819.88;5006639;28;20029;-76
2023/05/17 05:55:59;;;;;;;23.98;22.05;;;;;;;7.00;75.10;98812.88;5018820;28;20034;-75
2023/05/17 05:58:24;;;;;;;18.13;17.02;;;;;;;6.89;74.18;98826.84;5039266;28;20110;-76
2023/05/17 06:00:50;;;;;;;18.90;17.50;;;;;;;7.01;74.51;98835.94;5035823;28;20033;-76
2023/05/17 06:03:16;;;;;;;17.55;16.13;;;;;;;6.97;74.01;98830.19;5030262;28;20033;-76
2023/05/17 06:05:41;;;;;;;15.75;14.40;;;;;;;6.97;73.62;98830.19;5043889;28;20501;-77
2023/05/17 06:08:07;;;;;;;15.85;14.38;;;;;;;7.13;73.51;98838.81;5026430;28;20463;-75
2023/05/17 06:10:32;;;;;;;17.63;16.30;;;;;;;7.12;75.04;98839.84;5012818;28;20056;-75
2023/05/17 06:12:57;;;;;;;21.27;19.77;;;;;;;7.09;74.95;98842.94;5039622;28;20032;-76
2023/05/17 06:15:23;;;;;;;16.00;14.63;;;;;;;7.35;72.79;98838.38;5038366;28;20779;-76
2023/05/17 06:17:48;;;;;;;15.77;14.43;;;;;;;7.27;73.71;98840.44;5022582;28;20025;-76
2023/05/17 06:20:15;;;;;;;21.48;20.17;;;;;;;7.65;74.11;98854.84;5033323;28;20056;-76
2023/05/17 06:22:41;;;;;;;21.98;20.25;;;;;;;7.73;74.09;98851.91;5026178;28;20108;-76
2023/05/17 06:25:07;;;;;;;17.55;16.25;;;;;;;7.75;73.28;98849.84;5043630;28;20124;-76
2023/05/17 06:27:32;;;;;;;16.52;15.23;;;;;;;7.98;72.58;98855.53;5050542;28;20478;-76
2023/05/17 06:29:59;;;;;;;17.02;15.63;;;;;;;7.97;73.45;98853.09;5037151;28;20029;-76
2023/05/17 06:32:24;;;;;;;13.05;11.75;;;;;;;7.74;72.93;98858.94;5043745;28;20368;-77
2023/05/17 06:34:50;;;;;;;14.20;12.85;;;;;;;8.21;71.88;98847.81;5049215;28;20509;-76
2023/05/17 06:37:16;;;;;;;16.70;15.45;;;;;;;8.01;73.17;98849.78;5050358;28;20017;-77
2023/05/17 06:39:41;;;;;;;21.67;19.85;;;;;;;8.10;74.37;98848.50;5049459;28;20033;-77
2023/05/17 06:42:06;;;;;;;19.85;18.45;;;;;;;7.93;74.05;98852.69;5039064;28;20029;-77
2023/05/17 06:44:34;;;;;;;12.82;11.75;;;;;;;7.88;72.93;98860.56;5020559;28;20399;-77
2023/05/17 06:47:00;;;;;;;14.00;12.60;;;;;;;8.02;72.11;98859.47;5022604;28;20022;-77
2023/05/17 06:49:25;;;;;;;12.02;10.80;;;;;;;8.42;70.39;98853.97;5040322;28;20041;-77
2023/05/17 06:51:50;;;;;;;12.40;11.20;;;;;;;8.21;72.36;98853.19;5050089;28;20099;-77
2023/05/17 06:54:18;;;;;;;12.25;11.10;;;;;;;8.23;72.31;98859.19;5020389;28;20037;-76
2023/05/17 06:56:43;;;;;;;12.20;11.10;;;;;;;8.03;72.04;98863.78;5025995;28;20037;-77
2023/05/17 06:59:09;;;;;;;12.98;11.80;;;;;;;8.43;71.42;98861.78;5027328;28;20483;-76
2023/05/17 07:01:34;;;;;;;12.75;9.35;;;;;;;8.25;70.29;98853.59;5037704;28;20033;-77
2023/05/17 07:04:00;;;;;;;14.48;9.30;;;;;;;8.47;70.46;98862.19;5020222;28;20072;-77
2023/05/17 07:06:25;;;;;;;10.63;8.00;;;;;;;8.70;69.68;98855.25;5006880;28;20072;-77
2023/05/17 07:08:50;;;;;;;11.20;9.35;;;;;;;8.73;68.48;98865.53;5040033;28;20033;-77
2023/05/17 07:11:16;;;;;;;10.60;8.15;;;;;;;8.76;69.07;98859.75;5042473;28;20040;-77
2023/05/17 07:13:41;;;;;;;11.55;7.85;;;;;;;8.95;68.70;98857.97;5043809;28;20040;-77
2023/05/17 07:16:07;;;;;;;11.63;7.32;;;;;;;9.05;67.96;98858.31;5039845;28;20115;-77
2023/05/17 07:18:32;;;;;;;9.93;7.10;;;;;;;9.36;67.64;98860.94;5005475;28;20119;-77
2023/05/17 07:20:58;;;;;;;10.10;6.72;;;;;;;9.27;68.08;98864.94;5046776;28;20025;-77
2023/05/17 07:23:23;;;;;;;8.48;6.85;;;;;;;8.74;67.96;98861.00;5047204;28;20025;-77
2023/05/17 07:25:49;;;;;;;9.88;6.18;;;;;;;9.19;68.42;98867.09;5053770;28;20471;-77
2023/05/17 07:28:15;;;;;;;11.32;6.40;;;;;;;9.68;66.32;98859.78;5018405;28;20495;-78
2023/05/17 07:30:40;;;;;;;10.38;5.70;;;;;;;9.44;67.14;98874.09;5010610;28;20022;-77
2023/05/17 07:33:05;;;;;;;10.93;6.57;;;;;;;9.73;67.13;98861.84;5042481;28;20055;-77
2023/05/17 07:35:31;;;;;;;10.57;5.35;;;;;;;10.15;64.61;98865.56;5042451;28;20028;-77
2023/05/17 07:37:56;;;;;;;6.43;4.72;;;;;;;9.91;65.51;98856.47;5040329;28;20039;-77
2023/05/17 07:40:21;;;;;;;10.27;4.95;;;;;;;10.02;64.83;98860.28;5046650;28;20395;-77
2023/05/17 07:42:47;;;;;;;8.30;4.65;;;;;;;10.25;62.47;98855.88;5048078;28;20060;-78
2023/05/17 07:45:12;;;;;;;5.40;4.07;;;;;;;10.06;64.42;98850.72;5040737;28;20099;-78
2023/05/17 07:47:38;;;;;;;6.88;4.72;;;;;;;9.86;64.37;98855.50;5040243;28;20052;-77
2023/05/17 07:50:04;;;;;;;8.52;4.18;;;;;;;9.88;64.48;98858.78;5046880;28;20026;-78
2023/05/17 07:52:29;;;;;;;10.65;4.55;;;;;;;10.04;63.14;98858.19;5036415;28;20653;-77
2023/05/17 07:54:54;;;;;;;8.73;4.38;;;;;;;10.07;64.27;98857.72;5053692;28;20376;-78
2023/05/17 07:57:20;;;;;;;7.38;4.45;;;;;;;10.55;63.49;98855.91;5037066;28;20028;-77
2023/05/17 07:59:45;;;;;;;8.07;4.13;;;;;;;10.40;62.38;98858.19;5053870;28;20028;-77
2023/05/17 08:02:10;;;;;;;9.25;4.70;;;;;;;10.67;62.06;98856.78;5023728;28;20083;-77
2023/05/17 08:04:36;;;;;;;10.07;4.30;;;;;;;10.65;62.63;98860.75;5017367;28;20045;-78
2023/05/17 08:07:02;;;;;;;7.65;4.35;;;;;;;10.47;62.39;98855.41;5035427;28;20047;-77
2023/05/17 08:09:27;;;;;;;9.70;4.63;;;;;;;10.93;62.54;98863.66;4997988;28;20053;-77
2023/05/17 08:11:52;;;;;;;6.55;3.97;;;;;;;10.94;62.21;98852.66;5022871;28;20037;-77
2023/05/17 08:14:21;;;;;;;7.88;4.07;;;;;;;10.85;61.28;98856.72;5024422;28;20838;-78
2023/05/17 08:16:46;;;;;;;8.77;3.97;;;;;;;10.59;61.04;98864.38;5041360;28;20108;-77
2023/05/17 08:19:12;;;;;;;6.43;4.00;;;;;;;11.27;60.75;98854.81;5039570;28;20451;-78
2023/05/17 08:21:38;;;;;;;8.05;3.67;;;;;;;11.25;59.47;98856.13;5036227;28;20037;-78
2023/05/17 08:24:04;;;;;;;8.75;4.18;;;;;;;11.97;57.92;98854.84;5023949;28;20035;-78
2023/05/17 08:26:29;;;;;;;6.65;3.92;;;;;;;11.55;60.32;98864.94;5023610;28;20033;-78
2023/05/17 08:28:55;;;;;;;8.38;3.80;;;;;;;10.72;61.28;98862.31;5030350;28;20490;-78
2023/05/17 08:31:20;;;;;;;6.53;3.50;;;;;;;11.02;60.85;98856.88;5031114;28;20037;-78
2023/05/17 08:33:46;;;;;;;7.63;3.28;;;;;;;10.63;60.86;98863.69;5023696;28;20047;-78
2023/05/17 08:36:11;;;;;;;8.30;3.83;;;;;;;10.92;61.69;98857.44;5040190;28;20041;-78
2023/05/17 08:38:37;;;;;;;7.72;3.35;;;;;;;10.75;61.28;98861.84;5049381;28;20041;-78
2023/05/17 08:41:02;;;;;;;10.77;3.85;;;;;;;10.53;62.21;98863.38;5029360;28;20033;-77
2023/05/17 08:43:30;;;;;;;7.05;4.07;;;;;;;10.98;61.53;98861.91;5023004;28;20028;-78
2023/05/17 08:45:56;;;;;;;7.25;3.40;;;;;;;10.80;60.42;98855.78;5023177;28;20385;-77
2023/05/17 08:48:22;;;;;;;6.63;3.58;;;;;;;10.75;60.17;98861.84;5051982;28;20029;-77
2023/05/17 08:50:49;;;;;;;5.85;3.47;;;;;;;10.43;60.57;98865.81;5035334;28;20119;-77
2023/05/17 08:53:15;;;;;;;6.68;3.75;;;;;;;10.66;61.06;98863.22;5021665;28;20487;-77
2023/05/17 08:55:44;;;;;;;6.40;3.90;;;;;;;10.94;60.67;98855.34;5022203;28;20492;-77
2023/05/17 08:58:09;;;;;;;9.70;3.80;;;;;;;10.88;61.11;98861.66;5008439;28;20016;-77
2023/05/17 09:00:35;;;;;;;6.15;3.22;;;;;;;10.31;63.00;98867.63;5021807;28;20472;-77
2023/05/17 09:03:00;;;;;;;7.50;3.55;;;;;;;10.36;62.52;98865.09;5051651;28;20025;-77
2023/05/17 09:05:27;;;;;;;8.38;4.05;;;;;;;10.57;61.54;98875.34;5051611;28;20061;-73
2023/05/17 09:07:53;;;;;;;7.35;4.05;;;;;;;10.42;62.93;98883.00;5031593;28;20025;-76
2023/05/17 09:10:18;;;;;;;6.72;4.00;;;;;;;10.24;63.12;98877.66;5015077;28;20420;-76
2023/05/17 09:12:44;;;;;;;7.60;4.13;;;;;;;10.54;62.72;98885.75;5037741;28;20040;-76
2023/05/17 09:15:17;;;;;;;7.93;3.63;;;;;;;10.39;63.19;98884.28;5031322;28;20037;-77
2023/05/17 09:17:50;;;;;;;8.82;3.92;;;;;;;10.39;62.95;98883.47;5038713;28;20494;-77
2023/05/17 09:20:22;;;;;;;9.85;3.75;;;;;;;10.79;62.18;98881.06;5021304;28;20120;-76
2023/05/17 09:22:48;;;;;;;6.97;3.85;;;;;;;10.88;61.39;98880.50;5034780;28;20039;-77
2023/05/17 09:25:18;;;;;;;7.03;3.63;;;;;;;10.09;62.77;98882.56;5019059;28;20033;-77
2023/05/17 09:27:44;;;;;;;7.28;3.80;;;;;;;10.71;63.08;98887.59;5031389;28;20120;-77
2023/05/17 09:30:10;;;;;;;9.10;4.00;;;;;;;10.47;61.94;98891.25;5031389;28;20045;-77
2023/05/17 09:32:42;;;;;;;5.82;3.55;;;;;;;10.27;62.91;98893.34;5031162;28;20047;-76
2023/05/17 09:35:09;;;;;;;8.00;3.85;;;;;;;10.41;63.03;98903.72;5034147;28;20029;-77
2023/05/17 09:37:36;;;;;;;8.95;4.22;;;;;;;10.18;62.02;98900.06;5040945;28;20025;-77
2023/05/17 09:40:02;;;;;;;7.15;4.35;;;;;;;10.22;63.83;98901.28;5030771;28;20044;-77
2023/05/17 09:42:28;;;;;;;10.82;4.38;;;;;;;10.29;63.87;98904.72;5032151;28;20652;-77
2023/05/17 09:44:56;;;;;;;5.65;3.92;;;;;;;10.49;62.43;98909.84;5067380;28;20116;-77
2023/05/17 09:47:27;;;;;;;7.80;4.45;;;;;;;10.27;63.99;98912.19;5040874;28;20087;-76
2023/05/17 09:49:54;;;;;;;7.13;4.18;;;;;;;10.21;63.34;98913.09;5045628;28;20164;-76
2023/05/17 09:52:20;;;;;;;7.13;4.30;;;;;;;10.10;63.83;98913.81;5050728;28;20024;-76
2023/05/17 09:54:58;;;;;;;8.55;4.50;;;;;;;10.38;63.16;98914.16;5016645;28;20045;-76
2023/05/17 09:57:26;;;;;;;8.68;4.53;;;;;;;10.91;62.61;98915.09;5014386;28;20071;-76
2023/05/17 09:59:56;;;;;;;9.18;4.68;;;;;;;10.82;61.80;98918.34;5044083;28;20041;-76
2023/05/17 10:02:26;;;;;;;7.75;4.32;;;;;;;11.08;60.27;98918.78;5026997;28;20482;-77
2023/05/17 10:04:52;;;;;;;6.78;3.88;;;;;;;10.96;61.40;98928.72;5026946;28;20041;-76
2023/05/17 10:07:19;;;;;;;8.98;4.45;;;;;;;11.37;61.07;98924.34;5014392;28;20025;-76
2023/05/17 10:09:51;;;;;;;9.98;4.63;;;;;;;11.21;60.64;98925.03;5043505;28;20034;-77
2023/05/17 10:12:17;;;;;;;7.80;4.38;;;;;;;11.25;60.77;98920.84;5043902;28;20025;-76
2023/05/17 10:14:43;;;;;;;8.05;4.10;;;;;;;11.68;59.62;98929.47;5039704;28;20470;-76
2023/05/17 10:17:10;;;;;;;8.15;3.92;;;;;;;11.34;58.51;98930.22;5031164;28;20410;-76
2023/05/17 10:19:36;;;;;;;6.78;3.78;;;;;;;11.09;58.95;98922.28;5041151;28;20027;-76
2023/05/17 10:22:01;;;;;;;10.20;4.10;;;;;;;11.11;57.80;98926.41;5036965;28;20045;-77
2023/05/17 10:24:29;;;;;;;9.80;4.00;;;;;;;11.09;57.83;98928.50;5021007;28;20026;-76
2023/05/17 10:26:56;;;;;;;7.15;4.25;;;;;;;11.21;58.39;98931.25;5040265;28;20052;-77
2023/05/17 10:29:23;;;;;;;8.52;4.43;;;;;;;11.76;57.20;98934.56;5040426;28;20363;-76
2023/05/17 10:31:52;;;;;;;5.70;4.00;;;;;;;11.83;56.34;98927.16;5004010;28;20033;-76
2023/05/17 10:34:18;;;;;;;6.22;3.90;;;;;;;11.09;57.75;98933.91;5003890;28;20069;-76
2023/05/17 10:36:44;;;;;;;6.30;3.60;;;;;;;11.71;57.17;98931.72;5008165;28;20048;-76
2023/05/17 10:39:10;;;;;;;7.20;3.60;;;;;;;11.99;58.14;98933.72;5040943;28;20020;-76
2023/05/17 10:41:38;;;;;;;9.90;4.38;;;;;;;11.71;57.89;98929.84;5020112;28;20538;-77
2023/05/17 10:44:06;;;;;;;8.73;4.68;;;;;;;12.16;56.24;98924.66;5039343;28;20033;-76
2023/05/17 10:46:32;;;;;;;9.25;4.07;;;;;;;11.97;57.19;98920.44;5043677;28;20038;-77
2023/05/17 10:48:59;;;;;;;7.13;4.25;;;;;;;12.10;56.70;98933.72;5013885;28;20029;-77
2023/05/17 10:51:31;;;;;;;8.77;4.85;;;;;;;11.81;57.95;98939.25;5032627;28;20030;-76
2023/05/17 10:54:10;;;;;;;6.82;4.43;;;;;;;12.13;56.16;98925.16;5045653;28;20179;-76
2023/05/17 10:56:42;;;;;;;7.97;4.32;;;;;;;11.76;56.27;98923.75;5014460;28;20038;-76
2023/05/17 10:59:18;;;;;;;7.38;4.55;;;;;;;11.43;57.17;98923.44;5041631;28;20537;-76
2023/05/17 11:02:03;;;;;;;6.97;4.40;;;;;;;11.74;56.84;98925.84;5025346;28;20033;-76
2023/05/17 11:04:40;;;;;;;10.68;4.28;;;;;;;12.54;57.49;98926.81;5040317;28;20067;-76
2023/05/17 11:07:18;;;;;;;5.78;3.63;;;;;;;12.20;56.28;98925.84;5041015;28;20454;-76
2023/05/17 11:09:44;;;;;;;7.00;4.10;;;;;;;12.91;54.14;98908.34;5014172;28;20486;-76
2023/05/17 11:12:11;;;;;;;7.07;4.28;;;;;;;12.28;55.24;98917.38;5036126;28;20029;-76
2023/05/17 11:14:56;;;;;;;8.52;4.43;;;;;;;12.21;56.36;98910.44;5020259;28;20597;-77
2023/05/17 11:17:34;;;;;;;7.60;4.22;;;;;;;12.28;53.73;98911.13;5048861;28;20053;-77
2023/05/17 11:20:10;;;;;;;6.47;4.40;;;;;;;12.62;53.88;98898.63;5017219;28;20039;-77
2023/05/17 11:22:36;;;;;;;;;;;;;;;13.04;53.37;98889.16;5029022;28;20065;-77
2023/05/17 11:25:06;;;;;;;6.32;4.15;;;;;;;13.41;51.72;98889.56;5022541;28;19909;-77
2023/05/17 11:27:36;;;;;;;7.05;4.07;;;;;;;13.93;51.54;98893.63;5053493;28;20439;-77
2023/05/17 11:30:16;;;;;;;8.43;4.32;;;;;;;12.83;51.33;98887.97;5039834;28;20094;-77
2023/05/17 11:32:49;;;;;;;7.20;3.92;;;;;;;12.45;52.08;98882.34;5025963;28;20026;-77